createdAt,value
2017-06-02T00:01:14.399Z,74.90
2017-06-02T00:03:42.630Z,75.10
2017-06-02T00:06:10.858Z,76.10
2017-06-02T00:08:39.119Z,75.20
2017-06-02T00:11:07.392Z,73.50
2017-06-02T00:13:35.631Z,74.10
2017-06-02T00:16:03.859Z,71.90
2017-06-02T00:18:32.123Z,73.90
2017-06-02T00:21:00.360Z,73.10
2017-06-02T00:23:28.611Z,74.70
2017-06-02T00:25:56.830Z,74.80
2017-06-02T00:28:25.054Z,74.60
2017-06-02T00:30:53.395Z,75.10
2017-06-02T00:33:21.627Z,75.20
2017-06-02T00:35:49.850Z,75.30
2017-06-02T00:38:18.120Z,75.60
2017-06-02T00:40:46.354Z,75.10
2017-06-02T00:43:13.819Z,75.00
2017-06-02T00:45:42.127Z,74.80
2017-06-02T00:48:10.355Z,75.60
2017-06-02T00:50:38.575Z,71.70
2017-06-02T00:53:06.811Z,72.10
2017-06-02T00:55:35.118Z,73.00
2017-06-02T00:58:03.350Z,73.00
2017-06-02T01:00:31.586Z,74.00
2017-06-02T01:02:59.846Z,72.50
2017-06-02T01:05:28.087Z,72.60
2017-06-02T01:07:56.315Z,74.20
2017-06-02T01:10:24.577Z,74.70
2017-06-02T01:12:52.811Z,75.30
2017-06-02T01:15:21.043Z,75.40
2017-06-02T01:17:49.277Z,76.30
2017-06-02T01:20:17.506Z,75.90
2017-06-02T01:22:45.732Z,75.60
2017-06-02T01:25:13.966Z,76.20
2017-06-02T01:27:42.194Z,76.20
2017-06-02T01:30:10.421Z,76.50
2017-06-02T01:32:38.647Z,78.20
2017-06-02T01:35:06.915Z,78.10
2017-06-02T01:37:35.150Z,78.20
2017-06-02T01:40:03.377Z,77.80
2017-06-02T01:42:31.615Z,77.80
2017-06-02T01:44:59.914Z,77.10
2017-06-02T01:47:28.154Z,77.50
2017-06-02T01:49:56.467Z,77.20
2017-06-02T01:52:24.706Z,76.70
2017-06-02T01:54:52.935Z,76.80
2017-06-02T01:57:21.184Z,76.80
2017-06-02T01:59:49.414Z,78.20
2017-06-02T02:02:17.738Z,78.20
2017-06-02T02:04:45.972Z,77.40
2017-06-02T02:07:14.291Z,77.20
2017-06-02T02:09:42.514Z,78.10
2017-06-02T02:12:10.838Z,79.10
2017-06-02T02:14:39.111Z,80.20
2017-06-02T02:17:07.393Z,79.80
2017-06-02T02:19:35.667Z,80.80
2017-06-02T02:22:03.904Z,79.70
2017-06-02T02:24:32.222Z,79.10
2017-06-02T02:27:00.499Z,78.50
2017-06-02T02:29:28.751Z,76.90
2017-06-02T02:31:56.978Z,76.10
2017-06-02T02:34:25.212Z,75.50
2017-06-02T02:36:53.441Z,72.60
2017-06-02T02:39:21.770Z,73.50
2017-06-02T02:41:49.996Z,74.80
2017-06-02T02:44:18.224Z,74.20
2017-06-02T02:46:45.683Z,74.20
2017-06-02T02:49:13.946Z,74.80
2017-06-02T02:51:42.225Z,74.60
2017-06-02T02:54:10.455Z,75.50
2017-06-02T02:56:38.775Z,76.40
2017-06-02T02:59:07.007Z,78.60
2017-06-02T03:01:35.255Z,80.80
2017-06-02T03:04:02.718Z,80.80
2017-06-02T03:06:30.955Z,83.30
2017-06-02T03:08:59.187Z,83.80
2017-06-02T03:11:27.503Z,84.80
2017-06-02T03:13:55.739Z,85.60
2017-06-02T03:16:24.054Z,86.30
2017-06-02T03:18:52.331Z,86.70
2017-06-02T03:21:20.558Z,86.50
2017-06-02T03:23:48.882Z,86.80
2017-06-02T03:26:17.154Z,85.40
2017-06-02T03:28:45.439Z,85.50
2017-06-02T03:31:13.671Z,84.60
2017-06-02T03:33:41.984Z,80.40
2017-06-02T03:36:10.260Z,80.60
2017-06-02T03:38:38.502Z,78.90
2017-06-02T03:41:06.737Z,73.10
2017-06-02T03:43:35.086Z,72.40
2017-06-02T03:46:03.359Z,71.60
2017-06-02T03:48:31.636Z,71.80
2017-06-02T03:50:59.908Z,72.10
2017-06-02T03:53:27.383Z,72.10
2017-06-02T03:55:55.614Z,74.80
2017-06-02T03:58:23.838Z,78.90
2017-06-02T04:00:52.066Z,79.90
2017-06-02T04:03:20.372Z,79.50
2017-06-02T04:05:48.638Z,77.90
2017-06-02T04:08:16.874Z,70.70
2017-06-02T04:10:45.115Z,70.50
2017-06-02T04:13:13.364Z,76.00
2017-06-02T04:15:41.599Z,76.50
2017-06-02T04:18:09.826Z,77.90
2017-06-02T04:20:38.087Z,78.10
2017-06-02T04:23:06.315Z,78.10
2017-06-02T04:25:34.631Z,77.30
2017-06-02T04:28:02.914Z,77.40
2017-06-02T04:30:31.167Z,78.40
2017-06-02T04:32:59.390Z,76.20
2017-06-02T04:35:27.637Z,73.60
2017-06-02T04:37:55.911Z,66.80
2017-06-02T04:40:24.191Z,63.00
2017-06-02T04:42:52.424Z,65.50
2017-06-02T04:45:20.653Z,66.10
2017-06-02T04:47:48.910Z,63.70
2017-06-02T04:50:17.199Z,62.50
2017-06-02T04:52:45.466Z,62.00
2017-06-02T04:55:13.694Z,60.90
2017-06-02T04:57:42.015Z,55.50
2017-06-02T05:00:10.241Z,55.80
2017-06-02T05:02:38.474Z,56.70
2017-06-02T05:05:06.703Z,55.80
2017-06-02T05:07:35.011Z,53.30
2017-06-02T05:10:03.296Z,47.20
2017-06-02T05:12:31.526Z,44.50
2017-06-02T05:14:59.759Z,44.70
2017-06-02T05:17:27.978Z,47.50
2017-06-02T05:19:56.209Z,46.50
2017-06-02T05:22:24.441Z,46.10
2017-06-02T05:24:52.670Z,43.60
2017-06-02T05:27:21.012Z,43.00
2017-06-02T05:29:49.235Z,39.30
2017-06-02T05:32:17.458Z,40.40
2017-06-02T05:34:45.730Z,45.80
2017-06-02T05:37:13.962Z,50.70
2017-06-02T05:39:41.426Z,50.70
2017-06-02T05:42:09.739Z,53.80
2017-06-02T05:44:37.968Z,56.40
2017-06-02T07:32:37.886Z,59.50
2017-06-02T07:35:06.126Z,60.40
2017-06-02T07:37:34.352Z,59.40
2017-06-02T07:40:02.592Z,59.00
2017-06-02T07:42:30.890Z,59.50
2017-06-02T07:44:59.155Z,59.10
2017-06-02T07:47:26.612Z,59.10
2017-06-02T07:49:54.836Z,58.10
2017-06-02T07:52:23.054Z,56.90
2017-06-02T07:54:51.288Z,55.80
2017-06-02T07:57:19.615Z,54.70
2017-06-02T07:59:47.846Z,54.60
2017-06-02T08:02:16.171Z,54.40
2017-06-02T08:04:44.405Z,54.30
2017-06-02T08:07:12.639Z,53.30
2017-06-02T08:09:40.862Z,53.70
2017-06-02T08:12:09.103Z,54.10
2017-06-02T08:14:37.328Z,53.00
2017-06-02T08:17:05.569Z,53.10
2017-06-02T08:19:33.794Z,53.10
2017-06-02T08:22:02.027Z,53.10
2017-06-02T08:24:30.339Z,53.70
2017-06-02T08:26:58.579Z,53.20
2017-06-02T08:29:26.807Z,52.60
2017-06-02T08:31:55.067Z,53.80
2017-06-02T08:34:23.295Z,53.70
2017-06-02T08:36:50.799Z,53.80
2017-06-02T08:39:19.043Z,52.80
2017-06-02T08:41:47.264Z,52.40
2017-06-02T08:44:15.503Z,51.90
2017-06-02T08:46:43.727Z,52.40
2017-06-02T08:49:11.962Z,50.50
2017-06-02T08:51:40.195Z,50.10
2017-06-02T08:54:08.431Z,51.60
2017-06-02T08:56:36.651Z,51.60
2017-06-02T08:59:04.891Z,50.50
2017-06-02T09:01:33.142Z,52.00
2017-06-02T09:04:01.415Z,48.20
2017-06-02T09:06:29.646Z,49.70
2017-06-02T09:08:57.876Z,49.70
2017-06-02T09:11:26.107Z,49.10
2017-06-02T09:13:54.327Z,48.60
2017-06-02T09:16:22.563Z,51.60
2017-06-02T09:18:50.811Z,50.10
2017-06-02T09:21:19.055Z,49.00
2017-06-02T09:23:47.312Z,48.10
2017-06-02T09:26:15.595Z,47.10
2017-06-02T09:28:43.817Z,47.10
2017-06-02T09:31:12.055Z,47.80
2017-06-02T09:33:40.291Z,47.70
2017-06-02T09:36:08.524Z,47.50
2017-06-02T09:38:36.859Z,48.10
2017-06-02T09:41:05.103Z,46.30
2017-06-02T09:43:33.323Z,47.40
2017-06-02T09:46:01.575Z,48.00
2017-06-02T09:48:29.807Z,47.20
2017-06-02T09:50:58.038Z,47.90
2017-06-02T09:53:26.269Z,48.30
2017-06-02T09:55:54.490Z,48.20
2017-06-02T09:58:22.730Z,47.50
2017-06-02T10:00:50.955Z,47.70
2017-06-02T10:03:19.303Z,49.10
2017-06-02T10:05:47.522Z,47.80
2017-06-02T10:08:15.862Z,48.40
2017-06-02T10:10:44.135Z,47.00
2017-06-02T10:13:12.371Z,48.60
2017-06-02T10:15:40.684Z,48.30
2017-06-02T10:18:08.923Z,48.40
2017-06-02T10:20:37.149Z,48.10
2017-06-02T10:23:05.391Z,47.60
2017-06-02T10:25:33.615Z,46.20
2017-06-02T10:28:01.858Z,47.10
2017-06-02T10:30:30.091Z,45.50
2017-06-02T10:32:58.407Z,45.20
2017-06-02T10:35:26.684Z,43.10
2017-06-02T10:37:54.911Z,42.40
2017-06-02T10:40:23.150Z,43.70
2017-06-02T10:42:51.373Z,41.90
2017-06-02T10:45:19.679Z,43.50
2017-06-02T10:47:47.915Z,43.00
2017-06-02T10:50:16.223Z,43.50
2017-06-02T10:52:44.502Z,41.90
2017-06-02T10:55:12.764Z,43.40
2017-06-02T10:57:41.055Z,42.70
2017-06-02T11:00:09.292Z,42.20
2017-06-02T11:02:37.615Z,43.70
2017-06-02T11:05:05.883Z,40.90
2017-06-02T11:07:34.159Z,41.90
2017-06-02T11:10:02.396Z,41.10
2017-06-02T11:12:30.627Z,40.40
2017-06-02T11:14:58.857Z,42.80
2017-06-02T11:17:27.150Z,40.60
2017-06-02T11:19:55.432Z,39.60
2017-06-02T11:22:23.666Z,40.00
2017-06-02T11:24:51.895Z,41.30
2017-06-02T11:27:20.143Z,40.10
2017-06-02T11:29:48.432Z,37.80
2017-06-02T11:32:16.672Z,38.60
2017-06-02T11:34:44.987Z,38.40
2017-06-02T11:37:13.223Z,39.20
2017-06-02T11:39:41.447Z,39.10
2017-06-02T11:42:09.697Z,41.80
2017-06-02T11:44:37.922Z,40.20
2017-06-02T11:47:06.204Z,39.10
2017-06-02T11:49:34.428Z,38.90
2017-06-02T11:52:02.807Z,38.60
2017-06-02T11:54:31.038Z,40.50
2017-06-02T11:56:59.347Z,40.70
2017-06-02T11:59:27.583Z,39.70
2017-06-02T12:01:55.802Z,39.20
2017-06-02T12:04:24.394Z,38.10
2017-06-02T12:06:52.614Z,38.30
2017-06-02T12:09:20.842Z,38.60
2017-06-02T12:11:49.070Z,39.80
2017-06-02T12:14:17.309Z,38.90
2017-06-02T12:16:45.535Z,39.00
2017-06-02T12:19:13.771Z,39.90
2017-06-02T12:21:42.107Z,39.00
2017-06-02T12:24:10.351Z,41.30
2017-06-02T12:26:38.658Z,39.20
2017-06-02T12:29:07.034Z,40.90
2017-06-02T12:31:35.275Z,40.20
2017-06-02T12:34:03.587Z,40.30
2017-06-02T12:36:31.814Z,41.70
2017-06-02T12:39:00.043Z,41.10
2017-06-02T12:41:28.276Z,42.10
2017-06-02T12:43:56.578Z,41.20
2017-06-02T12:46:24.824Z,42.00
2017-06-02T12:48:53.056Z,42.60
2017-06-02T12:51:21.292Z,41.60
2017-06-02T12:53:49.518Z,41.80
2017-06-02T12:56:17.063Z,41.80
2017-06-02T12:58:45.292Z,41.40
2017-06-02T13:01:13.523Z,41.10
2017-06-02T13:03:41.754Z,42.20
2017-06-02T13:06:10.012Z,42.90
2017-06-02T13:08:38.312Z,41.80
2017-06-02T13:11:06.538Z,41.30
2017-06-02T13:13:34.766Z,42.80
2017-06-02T13:16:02.990Z,42.50
2017-06-02T13:18:31.311Z,42.90
2017-06-02T13:20:59.542Z,41.70
2017-06-02T13:23:27.774Z,41.60
2017-06-02T13:25:56.006Z,40.80
2017-06-02T13:28:24.316Z,39.90
2017-06-02T13:30:52.588Z,41.40
2017-06-02T13:33:20.823Z,42.00
2017-06-02T13:35:49.046Z,42.30
2017-06-02T13:38:17.311Z,42.50
2017-06-02T13:40:45.586Z,41.70
2017-06-02T13:43:13.851Z,42.50
2017-06-02T13:45:41.304Z,42.40
2017-06-02T13:48:09.586Z,41.50
2017-06-02T13:50:37.811Z,41.30
2017-06-02T13:53:06.043Z,40.90
2017-06-02T13:55:34.276Z,41.30
2017-06-02T13:58:02.503Z,41.40
2017-06-02T14:00:30.750Z,42.30
2017-06-02T14:02:58.980Z,42.70
2017-06-02T14:05:27.214Z,42.80
2017-06-02T14:07:55.440Z,42.40
2017-06-02T14:10:23.767Z,44.10
2017-06-02T14:12:51.991Z,43.00
2017-06-02T14:15:20.235Z,42.80
2017-06-02T14:17:48.460Z,42.50
2017-06-02T14:20:16.758Z,43.10
2017-06-02T14:22:44.994Z,43.20
2017-06-02T14:25:12.455Z,43.30
2017-06-02T14:27:40.685Z,43.20
2017-06-02T14:30:08.926Z,43.60
2017-06-02T14:32:37.165Z,43.10
2017-06-02T14:35:05.482Z,42.70
2017-06-02T14:37:34.483Z,42.70
2017-06-02T14:40:02.758Z,43.60
2017-06-02T14:42:30.995Z,43.50
2017-06-02T14:44:59.226Z,43.40
2017-06-02T14:47:27.463Z,43.40
2017-06-02T14:49:55.791Z,42.80
2017-06-02T14:52:23.260Z,42.90
2017-06-02T14:54:51.487Z,42.00
2017-06-02T14:57:19.746Z,41.70
2017-06-02T14:59:48.040Z,42.30
2017-06-02T15:02:16.258Z,41.10
2017-06-02T15:04:44.487Z,43.70
2017-06-02T15:07:12.719Z,47.50
2017-06-02T15:09:41.038Z,49.40
2017-06-02T15:12:09.317Z,48.80
2017-06-02T15:14:37.553Z,49.70
2017-06-02T15:17:05.774Z,50.20
2017-06-02T15:19:34.011Z,51.80
2017-06-02T15:22:02.313Z,51.20
2017-06-02T15:24:30.650Z,51.80
2017-06-02T15:26:58.955Z,52.30
2017-06-02T15:29:27.211Z,51.30
2017-06-02T15:31:55.432Z,51.90
2017-06-02T15:34:23.681Z,51.00
2017-06-02T15:36:51.963Z,51.60
2017-06-02T15:39:20.247Z,52.20
2017-06-02T15:41:48.467Z,51.60
2017-06-02T15:44:16.711Z,51.80
2017-06-02T15:46:44.930Z,52.70
2017-06-02T15:49:13.235Z,53.90
2017-06-02T15:51:41.462Z,53.70
2017-06-02T15:54:09.715Z,54.40
2017-06-02T15:56:37.947Z,55.10
2017-06-02T15:59:06.237Z,55.30
2017-06-02T16:01:34.511Z,55.40
2017-06-02T16:04:02.762Z,56.00
2017-06-02T16:06:31.066Z,56.50
2017-06-02T16:08:59.292Z,56.70
2017-06-02T16:11:27.520Z,57.50
2017-06-02T16:13:55.787Z,57.30
2017-06-02T16:16:24.063Z,58.60
2017-06-02T16:18:52.296Z,58.10
2017-06-02T16:21:20.527Z,58.00
2017-06-02T16:23:48.764Z,58.40
2017-06-02T16:26:16.994Z,58.50
2017-06-02T16:28:45.355Z,58.10
2017-06-02T16:31:13.579Z,57.50
2017-06-02T16:33:41.806Z,58.20
2017-06-02T16:36:10.042Z,58.10
2017-06-02T16:38:38.271Z,57.60
2017-06-02T16:41:06.606Z,57.40
2017-06-02T16:43:34.882Z,57.90
2017-06-02T16:46:03.102Z,57.30
2017-06-02T16:48:31.331Z,57.60
2017-06-02T16:50:59.563Z,57.60
2017-06-02T16:53:27.874Z,57.50
2017-06-02T16:55:56.159Z,57.40
2017-06-02T16:58:24.387Z,57.90
2017-06-02T17:00:52.615Z,57.30
2017-06-02T17:03:20.851Z,56.70
2017-06-02T17:05:49.078Z,57.40
2017-06-02T17:08:17.320Z,56.90
2017-06-02T17:10:45.542Z,56.50
2017-06-02T17:13:13.786Z,57.00
2017-06-02T17:15:42.012Z,56.30
2017-06-02T17:18:10.247Z,56.40
2017-06-02T17:20:38.478Z,56.20
2017-06-02T17:23:06.715Z,57.40
2017-06-02T17:25:34.939Z,57.50
2017-06-02T17:28:03.162Z,57.70
2017-06-02T17:30:31.400Z,57.70
2017-06-02T17:32:59.626Z,57.80
2017-06-02T17:35:27.867Z,58.40
2017-06-02T17:37:56.099Z,58.20
2017-06-02T17:40:24.340Z,58.60
2017-06-02T17:42:52.562Z,59.10
2017-06-02T17:45:20.797Z,59.20
2017-06-02T17:47:49.119Z,59.10
2017-06-02T17:50:17.397Z,59.30
2017-06-02T17:52:45.662Z,59.60
2017-06-02T17:55:13.919Z,59.20
2017-06-02T17:57:42.146Z,59.00
2017-06-02T18:00:10.372Z,59.00
2017-06-02T18:02:38.606Z,59.30
2017-06-02T18:05:06.826Z,59.20
2017-06-02T18:07:34.304Z,59.20
2017-06-02T18:10:02.539Z,58.80
2017-06-02T18:12:30.775Z,58.70
2017-06-02T18:14:59.006Z,57.90
2017-06-02T18:17:27.244Z,57.50
2017-06-02T18:19:55.472Z,57.40
2017-06-02T18:22:23.706Z,57.70
2017-06-02T18:24:52.023Z,56.80
2017-06-02T18:27:20.248Z,56.50
2017-06-02T18:29:48.570Z,56.50
2017-06-02T18:32:16.798Z,56.00
2017-06-02T18:34:45.030Z,55.70
2017-06-02T18:37:13.291Z,55.70
2017-06-02T18:39:41.526Z,56.40
2017-06-02T18:42:09.756Z,56.50
2017-06-02T18:44:37.990Z,56.50
2017-06-02T18:47:06.214Z,56.50
2017-06-02T18:49:34.453Z,56.40
2017-06-02T18:52:02.747Z,56.50
2017-06-02T18:54:31.018Z,56.70
2017-06-02T18:56:59.290Z,57.50
2017-06-02T18:59:27.528Z,57.80
2017-06-02T19:01:55.842Z,57.70
2017-06-02T19:04:24.086Z,58.60
2017-06-02T19:06:52.315Z,58.90
2017-06-02T19:09:20.543Z,60.40
2017-06-02T19:11:48.771Z,60.90
2017-06-02T19:14:16.995Z,62.20
2017-06-02T19:16:45.282Z,62.70
2017-06-02T19:19:13.512Z,63.30
2017-06-02T19:21:41.743Z,63.40
2017-06-02T19:24:09.975Z,63.40
2017-06-02T19:26:38.290Z,63.70
2017-06-02T19:29:06.516Z,64.40
2017-06-02T19:31:34.843Z,64.10
2017-06-02T19:34:03.107Z,64.70
2017-06-02T19:36:31.347Z,65.00
2017-06-02T19:38:59.662Z,64.90
2017-06-02T19:41:27.903Z,66.00
2017-06-02T19:43:56.127Z,65.60
2017-06-02T19:46:24.388Z,67.00
2017-06-02T19:48:52.662Z,67.20
2017-06-02T19:51:20.886Z,67.30
2017-06-02T19:53:49.137Z,67.80
2017-06-02T19:56:17.360Z,67.70
2017-06-02T19:58:45.666Z,69.00
2017-06-02T20:01:13.898Z,68.80
2017-06-02T20:03:42.129Z,68.70
2017-06-02T20:06:10.387Z,69.50
2017-06-02T20:08:38.619Z,70.20
2017-06-02T20:11:06.847Z,70.20
2017-06-02T20:13:35.091Z,70.70
2017-06-02T20:16:03.319Z,71.40
2017-06-02T20:18:31.551Z,71.60
2017-06-02T20:20:59.787Z,71.30
2017-06-02T20:23:28.030Z,71.70
2017-06-02T20:25:56.274Z,71.50
2017-06-02T20:28:24.511Z,72.10
2017-06-02T20:30:52.820Z,73.80
2017-06-02T20:33:21.058Z,73.30
2017-06-02T20:35:49.279Z,73.90
2017-06-02T20:38:17.519Z,73.90
2017-06-02T20:40:45.831Z,74.10
2017-06-02T20:43:14.107Z,74.80
2017-06-02T20:45:42.350Z,75.20
2017-06-02T20:48:10.659Z,74.80
2017-06-02T20:50:38.895Z,75.60
2017-06-02T20:53:07.122Z,76.00
2017-06-02T20:55:35.366Z,76.70
2017-06-02T20:58:03.582Z,76.80
2017-06-02T21:00:31.819Z,78.40
2017-06-02T21:03:00.078Z,79.10
2017-06-02T21:05:28.307Z,79.30
2017-06-02T21:07:56.539Z,80.40
2017-06-02T21:10:24.823Z,80.60
2017-06-02T21:12:53.110Z,80.70
2017-06-02T21:15:21.335Z,81.00
2017-06-02T21:17:49.654Z,81.70
2017-06-02T21:20:17.890Z,81.80
2017-06-02T21:22:46.109Z,81.90
2017-06-02T21:25:14.366Z,81.70
2017-06-02T21:27:42.582Z,82.40
2017-06-02T21:30:10.824Z,82.40
2017-06-02T21:32:39.098Z,82.60
2017-06-02T21:35:07.337Z,81.90
2017-06-02T21:37:35.569Z,83.40
2017-06-02T21:40:03.812Z,84.90
2017-06-02T21:42:32.038Z,84.80
2017-06-02T21:45:00.267Z,84.70
2017-06-02T21:47:28.511Z,85.30
2017-06-02T21:49:56.814Z,85.10
2017-06-02T21:52:25.059Z,85.60
2017-06-02T21:54:53.288Z,85.60
2017-06-02T21:57:21.529Z,85.70
2017-06-02T22:03:13.183Z,86.40
2017-06-02T22:05:40.642Z,86.30
2017-06-02T22:08:08.094Z,85.90
2017-06-02T22:10:35.574Z,85.40
2017-06-02T22:13:03.826Z,86.40
2017-06-02T22:15:31.289Z,86.40
2017-06-02T22:17:58.843Z,87.00
2017-06-02T22:20:26.397Z,87.80
2017-06-02T22:22:53.856Z,87.50
2017-06-02T22:25:21.315Z,87.30
2017-06-02T22:27:48.766Z,87.50
2017-06-02T22:30:16.223Z,87.30
2017-06-02T22:32:43.678Z,87.20
2017-06-02T22:35:11.139Z,86.70
2017-06-02T22:37:38.586Z,86.60
2017-06-02T22:40:06.151Z,86.30
2017-06-02T22:42:34.375Z,86.80
2017-06-02T22:45:01.829Z,86.70
2017-06-02T22:47:29.347Z,87.20
2017-06-02T22:49:56.798Z,87.50
2017-06-02T22:52:24.347Z,87.00
2017-06-02T22:54:51.803Z,87.60
2017-06-02T22:57:19.364Z,87.80
2017-06-02T22:59:46.818Z,87.80
2017-06-02T23:02:14.283Z,87.80
2017-06-02T23:04:41.744Z,87.50
2017-06-02T23:07:09.307Z,87.80
2017-06-02T23:09:37.541Z,88.60
2017-06-02T23:12:05.051Z,87.90
2017-06-02T23:14:33.294Z,88.10
2017-06-02T23:17:00.763Z,88.10
2017-06-02T23:19:28.319Z,88.60
2017-06-02T23:21:55.774Z,88.40
2017-06-02T23:24:23.335Z,87.60
2017-06-02T23:26:50.894Z,87.50
2017-06-02T23:29:18.448Z,87.70
2017-06-02T23:31:45.907Z,87.60
2017-06-02T23:34:13.363Z,88.20
2017-06-02T23:36:40.820Z,88.30
2017-06-02T23:39:08.376Z,88.90
2017-06-02T23:41:35.930Z,88.90
2017-06-02T23:44:03.392Z,88.90
2017-06-02T23:46:30.948Z,88.90
2017-06-02T23:48:58.408Z,89.40
2017-06-02T23:51:25.870Z,89.70
2017-06-02T23:53:54.111Z,90.60
2017-06-02T23:56:21.570Z,90.40
2017-06-02T23:58:49.038Z,90.60
